Time;durP1;ratioP1;P1;durP2;ratioP2;P2;SDS_P1;SDS_P2;PMS_P1;PMS_P2;Temp;Humidity;BMP_temperature;BMP_pressure;BME280_temperature;BME280_humidity;BME280_pressure;Samples;Min_cycle;Max_cycle;Signal;HPM_P1;HPM_P2
2023/07/20 00:01:04;;;;;;;6.28;4.78;;;20.20;99.90;;;;;;5081002;28;20106;-75
2023/07/20 00:03:29;;;;;;;7.57;4.90;;;20.10;99.90;;;;;;5080356;28;20032;-76
2023/07/20 00:05:55;;;;;;;8.90;4.50;;;20.10;99.90;;;;;;5079065;28;20065;-76
2023/07/20 00:08:21;;;;;;;7.00;4.90;;;20.00;99.90;;;;;;5083193;28;20384;-75
2023/07/20 00:10:46;;;;;;;11.52;5.13;;;19.90;99.90;;;;;;5080925;28;20017;-75
2023/07/20 00:13:12;;;;;;;5.38;4.80;;;20.00;99.90;;;;;;5080714;28;20054;-75
2023/07/20 00:15:38;;;;;;;7.15;4.97;;;20.00;99.90;;;;;;5087151;28;20020;-75
2023/07/20 00:18:05;;;;;;;6.07;5.35;;;19.90;99.90;;;;;;5077926;28;20032;-76
2023/07/20 00:20:30;;;;;;;11.70;5.63;;;19.90;99.90;;;;;;5077463;28;20102;-76
2023/07/20 00:22:57;;;;;;;10.38;4.47;;;19.90;99.90;;;;;;5081761;28;20491;-75
2023/07/20 00:25:26;;;;;;;11.35;5.35;;;19.90;99.90;;;;;;5078346;28;20027;-76
2023/07/20 00:27:52;;;;;;;10.20;5.45;;;19.90;99.90;;;;;;5077854;28;20032;-76
2023/07/20 00:30:18;;;;;;;5.80;4.32;;;19.90;99.90;;;;;;5087187;28;20030;-75
2023/07/20 00:32:45;;;;;;;13.57;5.10;;;19.90;99.90;;;;;;5088663;28;20107;-75
2023/07/20 00:35:11;;;;;;;12.95;6.05;;;19.90;99.90;;;;;;5082270;28;20023;-75
2023/07/20 00:37:38;;;;;;;8.35;5.07;;;19.80;99.90;;;;;;5093126;28;20576;-75
2023/07/20 00:40:05;;;;;;;10.52;5.43;;;19.80;99.90;;;;;;5080923;28;20063;-75
2023/07/20 00:42:34;;;;;;;8.73;4.63;;;19.80;99.90;;;;;;5081902;28;20024;-75
2023/07/20 00:45:00;;;;;;;9.98;5.07;;;19.80;99.90;;;;;;5083710;28;20024;-75
2023/07/20 00:47:26;;;;;;;9.25;4.82;;;19.80;99.90;;;;;;5082824;28;20044;-75
2023/07/20 00:49:52;;;;;;;9.05;4.82;;;19.70;99.90;;;;;;5079568;28;20020;-75
2023/07/20 00:52:20;;;;;;;7.85;4.57;;;19.70;99.90;;;;;;5081888;28;20074;-75
2023/07/20 00:54:47;;;;;;;9.32;4.82;;;19.70;99.90;;;;;;5082117;28;20050;-75
2023/07/20 00:57:15;;;;;;;7.93;5.20;;;19.70;99.90;;;;;;5082421;28;20021;-75
2023/07/20 00:59:40;;;;;;;10.70;5.30;;;19.60;99.90;;;;;;5080616;28;20032;-75
2023/07/20 01:02:06;;;;;;;10.07;5.57;;;19.70;99.90;;;;;;5083200;28;20031;-75
2023/07/20 01:04:32;;;;;;;6.45;5.13;;;19.70;99.90;;;;;;5083747;28;20468;-75
2023/07/20 01:07:31;;;;;;;8.75;4.93;;;19.60;99.90;;;;;;5080469;28;20039;-75
2023/07/20 01:10:12;;;;;;;8.10;4.72;;;19.60;99.90;;;;;;5082541;28;20020;-75
2023/07/20 01:12:51;;;;;;;6.47;4.90;;;19.60;99.90;;;;;;5079673;28;20152;-75
2023/07/20 01:15:17;;;;;;;11.23;5.05;;;19.50;99.90;;;;;;5085309;28;20028;-75
2023/07/20 01:17:43;;;;;;;8.35;5.30;;;19.50;99.90;;;;;;5088229;28;20024;-75
2023/07/20 01:20:13;;;;;;;7.75;4.55;;;19.50;99.90;;;;;;5083368;28;20111;-75
2023/07/20 01:23:15;;;;;;;6.93;4.82;;;19.50;99.90;;;;;;5081917;28;20028;-75
2023/07/20 01:26:06;;;;;;;8.75;6.05;;;19.50;99.90;;;;;;5085741;28;20020;-75
2023/07/20 01:28:59;;;;;;;11.38;5.15;;;19.50;99.90;;;;;;5080158;28;20107;-75
2023/07/20 01:31:31;;;;;;;10.18;5.00;;;19.40;99.90;;;;;;5083721;28;20021;-75
2023/07/20 01:34:00;;;;;;;9.88;4.88;;;19.40;99.90;;;;;;5076310;28;20484;-75
2023/07/20 01:36:28;;;;;;;6.88;5.15;;;19.40;99.90;;;;;;5080832;28;20085;-75
2023/07/20 01:38:55;;;;;;;7.53;5.22;;;19.40;99.90;;;;;;5081066;28;20381;-75
2023/07/20 01:41:22;;;;;;;10.93;5.70;;;19.40;99.90;;;;;;5080227;28;20043;-75
2023/07/20 01:43:47;;;;;;;8.70;5.20;;;19.40;99.90;;;;;;5079012;28;20036;-75
2023/07/20 01:46:13;;;;;;;9.45;5.28;;;19.30;99.90;;;;;;5082743;28;20028;-75
2023/07/20 01:48:39;;;;;;;10.80;6.43;;;19.40;99.90;;;;;;5083219;28;20085;-75
2023/07/20 01:51:04;;;;;;;11.20;5.60;;;19.40;99.90;;;;;;5079033;28;20020;-75
2023/07/20 01:53:30;;;;;;;9.20;5.70;;;19.40;99.90;;;;;;5078860;28;20036;-75
2023/07/20 01:55:57;;;;;;;6.82;5.57;;;19.40;99.90;;;;;;5092074;28;20048;-75
2023/07/20 01:58:22;;;;;;;9.50;6.82;;;19.40;99.90;;;;;;5081594;28;20082;-75
2023/07/20 02:00:48;;;;;;;12.57;5.88;;;19.40;99.90;;;;;;5086376;28;20032;-75
2023/07/20 02:03:14;;;;;;;11.50;6.43;;;19.40;99.90;;;;;;5086601;28;20056;-75
2023/07/20 02:05:42;;;;;;;12.27;5.70;;;19.40;99.90;;;;;;5076523;28;20035;-76
2023/07/20 02:08:07;;;;;;;11.95;6.13;;;19.40;99.90;;;;;;5082392;28;20110;-75
2023/07/20 02:10:33;;;;;;;8.25;6.03;;;19.30;99.90;;;;;;5084059;28;20103;-75
2023/07/20 02:12:58;;;;;;;9.10;5.15;;;19.30;99.90;;;;;;5081077;28;20032;-75
2023/07/20 02:15:24;;;;;;;9.07;6.10;;;19.40;99.90;;;;;;5087998;28;20093;-75
2023/07/20 02:17:50;;;;;;;14.00;6.85;;;19.40;99.90;;;;;;5077618;28;20121;-75
2023/07/20 02:20:15;;;;;;;9.70;6.25;;;19.40;99.90;;;;;;5086556;28;20028;-75
2023/07/20 02:22:41;;;;;;;10.90;6.13;;;19.40;99.90;;;;;;5078098;28;20165;-75
2023/07/20 02:25:07;;;;;;;11.35;6.40;;;19.40;99.90;;;;;;5083145;28;20024;-75
2023/07/20 02:27:37;;;;;;;14.40;6.38;;;19.40;99.90;;;;;;5083317;28;20020;-75
2023/07/20 02:30:03;;;;;;;13.63;7.03;;;19.40;99.90;;;;;;5086388;28;20020;-75
2023/07/20 02:32:30;;;;;;;10.40;6.50;;;19.30;99.90;;;;;;5083833;28;20024;-75
2023/07/20 02:34:56;;;;;;;11.07;6.28;;;19.30;99.90;;;;;;5086827;28;20032;-75
2023/07/20 02:37:21;;;;;;;13.05;6.40;;;19.20;99.90;;;;;;5089095;28;20074;-75
2023/07/20 02:39:47;;;;;;;13.77;6.93;;;19.30;99.90;;;;;;5085655;28;20035;-75
2023/07/20 02:42:13;;;;;;;9.85;5.90;;;19.30;99.90;;;;;;5080154;28;20457;-75
2023/07/20 02:44:38;;;;;;;15.00;7.25;;;19.30;99.90;;;;;;5077096;28;20029;-75
2023/07/20 02:47:04;;;;;;;12.73;6.35;;;19.30;99.90;;;;;;5075174;28;20103;-75
2023/07/20 02:49:30;;;;;;;11.48;6.22;;;19.20;99.90;;;;;;5083296;28;20099;-75
2023/07/20 02:51:56;;;;;;;11.60;5.90;;;19.30;99.90;;;;;;5087377;28;20096;-75
2023/07/20 02:54:22;;;;;;;12.60;7.13;;;19.20;99.90;;;;;;5078294;28;20032;-75
2023/07/20 02:56:47;;;;;;;14.32;6.38;;;19.30;99.90;;;;;;5084075;28;20085;-75
2023/07/20 02:59:13;;;;;;;12.02;5.75;;;19.20;99.90;;;;;;5078769;28;20040;-75
2023/07/20 03:01:39;;;;;;;12.25;5.45;;;19.20;99.90;;;;;;5077528;28;20477;-75
2023/07/20 03:04:04;;;;;;;12.93;6.85;;;19.20;99.90;;;;;;5078820;28;20052;-75
2023/07/20 03:06:30;;;;;;;12.98;7.30;;;19.20;99.90;;;;;;5081870;28;20091;-74
2023/07/20 03:08:56;;;;;;;16.23;7.43;;;19.10;99.90;;;;;;5078959;28;20082;-75
2023/07/20 03:11:22;;;;;;;14.98;8.90;;;19.10;99.90;;;;;;5081094;28;20016;-75
2023/07/20 03:13:48;;;;;;;16.30;7.65;;;19.10;99.90;;;;;;5079296;28;20044;-75
2023/07/20 03:16:17;;;;;;;15.95;8.13;;;19.20;99.90;;;;;;5082383;28;20044;-75
2023/07/20 03:18:43;;;;;;;11.85;7.50;;;19.10;99.90;;;;;;5085608;28;20028;-75
2023/07/20 03:21:13;;;;;;;14.18;8.00;;;19.10;99.90;;;;;;5082613;28;20438;-75
2023/07/20 03:23:40;;;;;;;14.90;10.00;;;19.20;99.90;;;;;;5078676;28;20417;-75
2023/07/20 03:26:08;;;;;;;15.85;10.32;;;19.10;99.90;;;;;;5086140;28;20027;-75
2023/07/20 03:28:34;;;;;;;15.60;10.23;;;19.10;99.90;;;;;;5078948;28;20040;-75
2023/07/20 03:31:00;;;;;;;15.00;9.85;;;19.10;99.90;;;;;;5081228;28;20012;-75
2023/07/20 03:33:28;;;;;;;14.73;9.85;;;19.10;99.90;;;;;;5082368;28;20050;-75
2023/07/20 03:35:54;;;;;;;16.95;10.77;;;19.10;99.90;;;;;;5080817;28;20020;-75
2023/07/20 03:38:21;;;;;;;16.48;9.73;;;19.10;99.90;;;;;;5084792;28;20028;-75
2023/07/20 03:40:51;;;;;;;18.60;11.25;;;19.10;99.90;;;;;;5077547;28;20052;-75
2023/07/20 03:43:17;;;;;;;21.30;12.38;;;19.10;99.90;;;;;;5080422;28;20024;-75
2023/07/20 03:45:43;;;;;;;17.42;11.27;;;19.00;99.90;;;;;;5081468;28;20031;-75
2023/07/20 03:48:09;;;;;;;19.55;12.00;;;19.00;99.90;;;;;;5081781;28;20058;-75
2023/07/20 03:50:35;;;;;;;19.13;11.60;;;19.00;99.90;;;;;;5082998;28;20021;-75
2023/07/20 03:53:00;;;;;;;20.63;11.93;;;19.00;99.90;;;;;;5085760;28;20058;-75
2023/07/20 03:55:26;;;;;;;24.55;12.90;;;19.00;99.90;;;;;;5074888;28;20097;-75
2023/07/20 03:57:51;;;;;;;20.00;12.27;;;19.00;99.90;;;;;;5079220;28;20024;-75
2023/07/20 04:00:18;;;;;;;20.23;12.52;;;19.10;99.90;;;;;;5076647;28;20102;-75
2023/07/20 04:02:43;;;;;;;18.30;12.10;;;19.00;99.90;;;;;;5089609;28;20490;-75
2023/07/20 04:05:09;;;;;;;19.65;12.88;;;18.90;99.90;;;;;;5094962;28;20500;-75
2023/07/20 04:07:35;;;;;;;17.35;12.93;;;18.90;99.90;;;;;;5095102;28;20487;-75
2023/07/20 04:10:01;;;;;;;20.25;12.38;;;18.90;99.90;;;;;;5096373;28;20024;-75
2023/07/20 04:12:26;;;;;;;24.30;13.95;;;18.90;99.90;;;;;;5096566;28;20534;-75
2023/07/20 04:14:52;;;;;;;20.67;13.95;;;18.90;99.90;;;;;;5094631;28;20058;-75
2023/07/20 04:17:18;;;;;;;19.13;14.40;;;18.90;99.90;;;;;;5092432;28;20116;-75
2023/07/20 04:19:44;;;;;;;20.92;13.93;;;18.90;99.90;;;;;;5086509;28;20060;-75
2023/07/20 04:22:09;;;;;;;23.77;14.70;;;18.90;99.90;;;;;;5076065;28;20389;-75
2023/07/20 04:24:35;;;;;;;19.85;13.75;;;18.90;99.90;;;;;;5075759;28;20021;-75
2023/07/20 04:27:01;;;;;;;21.90;14.38;;;18.90;99.90;;;;;;5073467;28;20428;-75
2023/07/20 04:29:26;;;;;;;17.08;12.95;;;18.90;99.90;;;;;;5076012;28;20028;-75
2023/07/20 04:31:52;;;;;;;17.67;13.25;;;18.90;99.90;;;;;;5075805;28;20025;-75
2023/07/20 04:34:18;;;;;;;21.88;13.35;;;18.90;99.90;;;;;;5074419;28;20370;-75
2023/07/20 04:36:43;;;;;;;22.00;14.93;;;18.90;99.90;;;;;;5075472;28;20025;-75
2023/07/20 04:39:10;;;;;;;21.50;14.48;;;18.90;99.90;;;;;;5075478;28;20028;-75
2023/07/20 04:41:35;;;;;;;23.95;14.23;;;18.90;99.90;;;;;;5075455;28;20028;-75
2023/07/20 04:44:01;;;;;;;24.25;15.27;;;18.90;99.90;;;;;;5075480;28;20036;-75
2023/07/20 04:46:27;;;;;;;21.17;16.10;;;19.00;99.90;;;;;;5075726;28;20021;-75
2023/07/20 04:48:53;;;;;;;19.45;13.68;;;19.00;99.90;;;;;;5074766;28;20473;-75
2023/07/20 04:51:20;;;;;;;19.73;14.02;;;18.90;99.90;;;;;;5075372;28;20025;-75
2023/07/20 04:53:47;;;;;;;18.55;13.75;;;19.00;99.90;;;;;;5075036;28;20594;-75
2023/07/20 04:56:13;;;;;;;20.15;14.15;;;19.00;99.90;;;;;;5073436;28;20020;-75
2023/07/20 04:58:38;;;;;;;20.83;15.05;;;19.10;99.90;;;;;;5075262;28;20428;-75
2023/07/20 05:01:04;;;;;;;22.50;16.02;;;19.10;99.90;;;;;;5077506;28;20429;-75
2023/07/20 05:03:29;;;;;;;24.17;16.58;;;19.00;99.90;;;;;;5095246;28;20031;-75
2023/07/20 05:05:55;;;;;;;20.85;14.20;;;19.00;99.90;;;;;;5095411;28;20477;-75
2023/07/20 05:08:24;;;;;;;23.00;15.02;;;19.00;99.90;;;;;;5094626;28;20125;-75
2023/07/20 05:10:49;;;;;;;21.63;15.55;;;19.00;99.90;;;;;;5094878;28;20480;-75
2023/07/20 05:13:15;;;;;;;19.63;16.48;;;19.00;99.90;;;;;;5094260;28;20036;-75
2023/07/20 05:15:41;;;;;;;23.90;16.17;;;19.00;99.90;;;;;;5093562;28;20026;-75
2023/07/20 05:18:07;;;;;;;20.77;15.80;;;19.00;99.90;;;;;;5094837;28;20483;-75
2023/07/20 05:20:33;;;;;;;21.65;16.70;;;19.00;99.90;;;;;;5086909;28;20027;-75
2023/07/20 05:23:00;;;;;;;22.48;17.75;;;19.00;99.90;;;;;;5076294;28;20032;-75
2023/07/20 05:25:26;;;;;;;25.38;17.17;;;19.00;99.90;;;;;;5074508;28;20138;-75
2023/07/20 05:27:52;;;;;;;22.58;18.60;;;19.00;99.90;;;;;;5073265;28;20142;-75
2023/07/20 05:30:18;;;;;;;24.75;17.42;;;19.00;99.90;;;;;;5074540;28;20509;-75
2023/07/20 05:32:47;;;;;;;22.80;17.98;;;19.00;99.90;;;;;;5074647;28;20475;-75
2023/07/20 05:35:13;;;;;;;23.55;17.42;;;19.00;99.90;;;;;;5073197;28;20404;-76
2023/07/20 05:37:39;;;;;;;21.08;16.10;;;19.00;99.90;;;;;;5086082;28;20030;-75
2023/07/20 05:40:07;;;;;;;20.33;16.52;;;19.10;99.90;;;;;;5074160;28;20100;-75
2023/07/20 05:42:33;;;;;;;18.13;15.77;;;19.10;99.90;;;;;;5073548;28;20020;-75
2023/07/20 05:44:59;;;;;;;22.38;15.85;;;19.10;99.90;;;;;;5074134;28;20036;-75
2023/07/20 05:47:25;;;;;;;22.42;16.92;;;19.10;99.90;;;;;;5075488;28;20039;-74
2023/07/20 05:49:50;;;;;;;22.48;16.58;;;19.20;99.90;;;;;;5091373;28;20016;-75
2023/07/20 05:52:16;;;;;;;18.50;15.40;;;19.20;99.90;;;;;;5093173;28;20069;-74
2023/07/20 05:54:41;;;;;;;23.50;17.08;;;19.30;99.90;;;;;;5092045;28;20084;-73
2023/07/20 05:57:08;;;;;;;19.67;15.25;;;19.40;99.90;;;;;;5094059;28;20063;-74
2023/07/20 05:59:33;;;;;;;20.88;16.60;;;19.40;99.90;;;;;;5092603;28;20066;-73
2023/07/20 06:01:59;;;;;;;19.88;16.05;;;19.30;99.90;;;;;;5086604;28;20067;-74
2023/07/20 06:04:25;;;;;;;19.90;15.50;;;19.30;99.90;;;;;;5094058;28;20052;-74
2023/07/20 06:06:50;;;;;;;19.70;15.68;;;19.40;99.90;;;;;;5092885;28;20047;-74
2023/07/20 06:09:16;;;;;;;21.15;15.48;;;19.30;99.90;;;;;;5093463;28;20020;-74
2023/07/20 06:11:42;;;;;;;16.38;14.10;;;19.40;99.90;;;;;;5093992;28;20024;-74
2023/07/20 06:14:07;;;;;;;18.73;13.55;;;19.40;99.90;;;;;;5092683;28;20158;-74
2023/07/20 06:16:33;;;;;;;16.67;12.90;;;19.50;99.90;;;;;;5093956;28;20031;-74
2023/07/20 06:19:00;;;;;;;14.10;11.40;;;19.40;99.90;;;;;;5093969;28;20103;-74
2023/07/20 06:21:26;;;;;;;13.82;12.07;;;19.50;99.90;;;;;;5093864;28;20047;-74
2023/07/20 06:23:52;;;;;;;17.20;13.10;;;19.50;99.90;;;;;;5093305;28;20476;-74
2023/07/20 06:26:17;;;;;;;13.32;11.93;;;19.50;99.90;;;;;;5091400;28;20020;-74
2023/07/20 06:28:43;;;;;;;16.30;13.80;;;19.50;99.90;;;;;;5093950;28;20074;-74
2023/07/20 06:31:08;;;;;;;13.98;11.93;;;19.40;99.90;;;;;;5093496;28;20032;-74
2023/07/20 06:33:34;;;;;;;18.50;12.43;;;19.40;99.90;;;;;;5093498;28;20038;-74
2023/07/20 06:36:00;;;;;;;13.00;11.57;;;19.50;99.90;;;;;;5092696;28;20016;-74
2023/07/20 06:38:26;;;;;;;15.50;11.32;;;19.40;99.90;;;;;;5092895;28;20028;-74
2023/07/20 06:40:52;;;;;;;13.38;10.30;;;19.40;99.90;;;;;;5093923;28;20069;-74
2023/07/20 06:43:21;;;;;;;12.02;9.95;;;19.40;99.90;;;;;;5093457;28;20028;-74
2023/07/20 06:45:55;;;;;;;12.43;11.00;;;19.30;99.90;;;;;;5089579;28;20518;-74
2023/07/20 06:48:21;;;;;;;12.43;10.20;;;19.40;99.90;;;;;;5078897;28;20481;-74
2023/07/20 06:50:47;;;;;;;12.10;9.88;;;19.50;99.90;;;;;;5071810;28;20017;-74
2023/07/20 06:53:13;;;;;;;11.60;10.38;;;19.50;99.90;;;;;;5071059;28;20469;-74
2023/07/20 06:55:39;;;;;;;11.30;9.38;;;19.60;99.90;;;;;;5072578;28;20036;-74
2023/07/20 06:58:05;;;;;;;8.73;7.90;;;19.60;99.90;;;;;;5073079;28;20029;-74
2023/07/20 07:00:30;;;;;;;8.77;7.97;;;19.60;99.90;;;;;;5074900;28;20119;-74
2023/07/20 07:02:56;;;;;;;8.13;6.70;;;19.50;99.90;;;;;;5092887;28;20137;-74
2023/07/20 07:05:22;;;;;;;6.60;5.88;;;19.60;99.90;;;;;;5088382;28;20028;-74
2023/07/20 07:07:48;;;;;;;7.22;6.25;;;19.60;99.90;;;;;;5078659;28;20516;-74
2023/07/20 07:10:14;;;;;;;7.65;6.93;;;19.70;99.90;;;;;;5086700;28;20016;-74
2023/07/20 07:12:40;;;;;;;7.65;6.43;;;19.80;99.90;;;;;;5092401;28;20050;-74
2023/07/20 07:15:06;;;;;;;7.25;6.55;;;19.80;99.90;;;;;;5091758;28;20036;-74
2023/07/20 07:17:32;;;;;;;7.10;5.13;;;19.80;99.90;;;;;;5091687;28;20028;-74
2023/07/20 07:19:58;;;;;;;5.25;4.50;;;19.90;99.90;;;;;;5092752;28;20111;-73
2023/07/20 07:22:25;;;;;;;4.22;3.83;;;20.00;99.90;;;;;;5083123;28;20032;-74
2023/07/20 07:24:50;;;;;;;3.97;3.28;;;19.90;99.90;;;;;;5092229;28;20107;-74
2023/07/20 07:27:16;;;;;;;4.85;3.72;;;20.00;99.90;;;;;;5077286;28;20119;-74
2023/07/20 07:29:44;;;;;;;3.70;2.80;;;20.10;99.90;;;;;;5072981;28;20031;-75
2023/07/20 07:32:11;;;;;;;2.47;2.28;;;20.00;99.90;;;;;;5092538;28;20032;-74
2023/07/20 07:34:36;;;;;;;4.13;2.00;;;20.00;99.90;;;;;;5084664;28;20032;-74
2023/07/20 07:37:03;;;;;;;2.50;2.30;;;19.90;99.90;;;;;;5071981;28;20373;-74
2023/07/20 07:39:30;;;;;;;2.22;2.00;;;19.90;99.90;;;;;;5073737;28;20097;-74
2023/07/20 07:41:56;;;;;;;3.97;2.53;;;19.90;99.90;;;;;;5092610;28;20016;-74
2023/07/20 07:44:22;;;;;;;3.92;2.95;;;19.90;99.90;;;;;;5080914;28;20064;-74
2023/07/20 07:46:48;;;;;;;3.35;2.67;;;19.90;99.90;;;;;;5075161;28;20027;-74
2023/07/20 07:49:14;;;;;;;2.55;2.00;;;19.90;99.90;;;;;;5090967;28;20377;-74
2023/07/20 07:51:40;;;;;;;3.30;2.08;;;19.90;99.90;;;;;;5092262;28;20025;-74
2023/07/20 07:54:06;;;;;;;3.22;1.85;;;19.90;99.90;;;;;;5092311;28;20039;-74
2023/07/20 07:56:31;;;;;;;1.73;1.63;;;20.00;99.90;;;;;;5092033;28;20025;-74
2023/07/20 07:58:57;;;;;;;1.50;1.40;;;20.00;99.90;;;;;;5092219;28;20047;-74
2023/07/20 08:01:22;;;;;;;2.42;1.63;;;20.10;99.90;;;;;;5079286;28;20024;-74
2023/07/20 08:03:48;;;;;;;2.83;1.45;;;20.30;99.90;;;;;;5085816;28;20472;-74
2023/07/20 08:06:14;;;;;;;0.88;0.88;;;20.40;99.90;;;;;;5084732;28;20480;-74
2023/07/20 08:08:40;;;;;;;0.90;0.80;;;20.60;99.90;;;;;;5092417;28;20082;-74
2023/07/20 08:11:06;;;;;;;1.23;0.85;;;20.80;99.90;;;;;;5092141;28;20032;-74
2023/07/20 08:13:32;;;;;;;1.05;0.75;;;21.00;99.90;;;;;;5091900;28;20439;-75
2023/07/20 08:15:58;;;;;;;0.85;0.40;;;20.80;99.90;;;;;;5082074;28;20016;-74
2023/07/20 08:18:24;;;;;;;0.40;0.40;;;20.90;99.90;;;;;;5086178;28;20035;-74
2023/07/20 08:20:50;;;;;;;0.47;0.40;;;20.90;99.90;;;;;;5080026;28;20033;-74
2023/07/20 08:23:16;;;;;;;1.42;0.85;;;20.90;99.90;;;;;;5080393;28;20070;-74
2023/07/20 08:25:45;;;;;;;1.95;1.85;;;20.90;99.90;;;;;;5077325;28;20123;-75
2023/07/20 08:28:12;;;;;;;3.58;2.72;;;20.90;99.90;;;;;;5073529;28;20017;-74
2023/07/20 08:30:48;;;;;;;2.80;2.60;;;20.90;99.90;;;;;;5088788;28;20033;-74
2023/07/20 08:33:19;;;;;;;3.65;2.65;;;20.70;99.90;;;;;;5070430;28;20556;-74
2023/07/20 08:35:46;;;;;;;1.77;1.63;;;20.60;99.90;;;;;;5071480;28;20025;-74
2023/07/20 08:38:12;;;;;;;4.82;1.67;;;20.60;99.90;;;;;;5082192;28;20044;-74
2023/07/20 08:40:43;;;;;;;5.13;1.77;;;20.70;99.90;;;;;;5071795;28;20025;-74
2023/07/20 08:43:11;;;;;;;3.40;1.25;;;21.00;99.90;;;;;;5070559;28;20024;-74
2023/07/20 08:45:39;;;;;;;1.15;0.90;;;21.20;99.90;;;;;;5076650;28;20036;-74
2023/07/20 08:48:06;;;;;;;1.52;1.35;;;21.40;99.90;;;;;;5081585;28;20092;-74
2023/07/20 08:50:33;;;;;;;0.90;0.90;;;21.60;99.90;;;;;;5082812;28;20033;-74
2023/07/20 08:52:59;;;;;;;1.13;0.70;;;21.80;99.90;;;;;;5084104;28;20384;-74
2023/07/20 08:55:26;;;;;;;0.88;0.80;;;21.70;99.90;;;;;;5084012;28;20028;-74
2023/07/20 08:57:57;;;;;;;1.35;1.00;;;21.80;99.90;;;;;;5084642;28;20036;-73
2023/07/20 09:00:24;;;;;;;1.20;0.85;;;22.10;99.90;;;;;;5083471;28;20035;-74
2023/07/20 09:02:52;;;;;;;0.80;0.80;;;22.40;99.90;;;;;;5085630;28;20016;-74
2023/07/20 09:05:22;;;;;;;1.38;1.27;;;22.50;99.90;;;;;;5078864;28;20024;-74
2023/07/20 09:07:48;;;;;;;2.65;1.63;;;22.70;99.90;;;;;;5075592;28;20095;-74
2023/07/20 09:10:14;;;;;;;2.22;1.20;;;23.00;99.90;;;;;;5075023;28;20477;-74
2023/07/20 09:12:42;;;;;;;1.02;0.90;;;22.90;99.90;;;;;;5074993;28;20032;-74
2023/07/20 09:15:09;;;;;;;0.70;0.70;;;23.10;99.90;;;;;;5073059;28;20123;-74
2023/07/20 09:17:35;;;;;;;0.82;0.70;;;23.40;99.90;;;;;;5072866;28;20047;-74
2023/07/20 09:20:10;;;;;;;0.73;0.32;;;23.20;99.90;;;;;;5074818;28;20472;-72
2023/07/20 09:22:40;;;;;;;2.05;0.77;;;23.10;99.90;;;;;;5073466;28;20028;-72
2023/07/20 09:25:22;;;;;;;2.47;0.88;;;22.90;99.90;;;;;;5086656;28;20024;-71
2023/07/20 09:27:49;;;;;;;1.40;1.30;;;22.70;99.90;;;;;;5094444;28;20101;-69
2023/07/20 09:30:16;;;;;;;1.40;0.70;;;22.50;99.90;;;;;;5093862;28;20016;-70
2023/07/20 09:32:46;;;;;;;1.85;0.80;;;22.50;99.90;;;;;;5094527;28;20035;-69
2023/07/20 09:35:17;;;;;;;0.90;0.80;;;22.40;99.90;;;;;;5093443;28;20031;-70
2023/07/20 09:37:59;;;;;;;3.72;0.75;;;22.70;99.90;;;;;;5093955;28;20473;-69
2023/07/20 09:40:28;;;;;;;2.75;1.10;;;22.80;99.90;;;;;;5094222;28;20028;-70
2023/07/20 09:43:02;;;;;;;0.95;0.80;;;22.70;99.90;;;;;;5094908;28;20489;-69
2023/07/20 09:45:34;;;;;;;0.50;0.50;;;23.00;99.90;;;;;;5094504;28;20032;-71
2023/07/20 09:48:06;;;;;;;0.90;0.90;;;23.40;99.90;;;;;;5092800;28;20024;-69
2023/07/20 09:50:44;;;;;;;1.75;0.85;;;23.50;99.90;;;;;;5094174;28;20392;-69
2023/07/20 09:53:13;;;;;;;0.73;0.60;;;23.40;99.90;;;;;;5094387;28;20024;-70
2023/07/20 09:55:40;;;;;;;0.88;0.65;;;23.40;99.90;;;;;;5093739;28;20020;-70
2023/07/20 09:58:08;;;;;;;3.30;0.93;;;23.30;99.90;;;;;;5088416;28;20102;-70
2023/07/20 10:00:37;;;;;;;1.85;0.63;;;23.30;99.90;;;;;;5072926;28;20107;-70
2023/07/20 10:03:05;;;;;;;2.83;0.77;;;23.20;99.90;;;;;;5092767;28;20012;-70
2023/07/20 10:05:36;;;;;;;2.15;0.70;;;23.10;99.90;;;;;;5090023;28;20050;-70
2023/07/20 10:08:05;;;;;;;3.37;0.87;;;23.00;99.90;;;;;;5091122;28;20066;-70
2023/07/20 10:10:33;;;;;;;0.70;0.70;;;22.80;99.90;;;;;;5088035;28;20187;-71
2023/07/20 10:13:00;;;;;;;0.98;0.80;;;23.30;99.90;;;;;;5080144;28;20023;-71
2023/07/20 10:15:46;;;;;;;1.15;0.70;;;23.70;99.90;;;;;;5072497;28;20088;-70
2023/07/20 10:18:18;;;;;;;0.55;0.55;;;23.90;99.90;;;;;;5085786;28;20050;-70
2023/07/20 10:20:46;;;;;;;1.90;0.63;;;24.10;99.90;;;;;;5079123;28;20032;-73
2023/07/20 10:23:12;;;;;;;1.55;0.70;;;24.20;99.90;;;;;;5072806;28;20032;-73
2023/07/20 10:25:41;;;;;;;1.33;0.60;;;24.40;99.90;;;;;;5091995;28;20032;-73
2023/07/20 10:28:07;;;;;;;1.58;0.60;;;24.60;99.90;;;;;;5093638;28;20031;-73
2023/07/20 10:30:36;;;;;;;0.90;0.60;;;24.80;99.90;;;;;;5092072;28;20020;-73
2023/07/20 10:33:06;;;;;;;1.02;0.93;;;24.70;99.90;;;;;;5093467;28;20534;-73
2023/07/20 10:35:55;;;;;;;1.35;1.00;;;23.90;99.90;;;;;;5092395;28;20027;-73
2023/07/20 10:38:54;;;;;;;1.20;1.10;;;23.80;99.90;;;;;;5080841;28;20099;-73
2023/07/20 10:41:20;;;;;;;0.85;0.85;;;23.60;99.90;;;;;;5071739;28;20393;-73
2023/07/20 10:43:47;;;;;;;0.93;0.75;;;23.80;99.90;;;;;;5071057;28;20098;-73
2023/07/20 10:46:13;;;;;;;1.42;0.60;;;24.30;99.90;;;;;;5072981;28;20059;-73
2023/07/20 10:49:08;;;;;;;1.35;0.90;;;24.70;99.90;;;;;;5073057;28;20099;-72
2023/07/20 10:51:47;;;;;;;1.10;0.90;;;25.00;99.90;;;;;;5071294;28;20115;-72
2023/07/20 10:54:16;;;;;;;1.42;0.90;;;25.30;99.90;;;;;;5075526;28;20032;-73
2023/07/20 10:56:42;;;;;;;2.90;0.95;;;25.20;99.90;;;;;;5080491;28;20024;-74
2023/07/20 10:59:23;;;;;;;0.98;0.88;;;25.30;99.90;;;;;;5075082;28;20118;-74
2023/07/20 11:01:50;;;;;;;1.45;0.80;;;25.30;99.90;;;;;;5082248;28;20058;-74
2023/07/20 11:04:19;;;;;;;1.27;0.70;;;25.10;99.90;;;;;;5082090;28;20425;-73
2023/07/20 11:06:46;;;;;;;0.60;0.60;;;25.00;99.90;;;;;;5081027;28;20017;-73
2023/07/20 11:09:16;;;;;;;2.97;0.70;;;25.20;99.90;;;;;;5081797;28;20095;-73
2023/07/20 11:11:44;;;;;;;0.52;0.52;;;25.30;99.90;;;;;;5082644;28;20027;-72
2023/07/20 11:14:34;;;;;;;0.75;0.75;;;25.40;99.90;;;;;;5080137;28;20024;-73
2023/07/20 11:17:12;;;;;;;0.77;0.77;;;25.40;99.90;;;;;;5082519;28;20416;-74
2023/07/20 11:19:40;;;;;;;0.55;0.50;;;25.50;99.90;;;;;;5079811;28;20017;-73
2023/07/20 11:22:09;;;;;;;0.90;0.60;;;25.70;99.90;;;;;;5075406;28;20074;-73
2023/07/20 11:24:39;;;;;;;0.45;0.45;;;25.80;99.90;;;;;;5080810;28;20486;-73
2023/07/20 11:27:05;;;;;;;1.30;0.57;;;26.00;99.90;;;;;;5079236;28;20029;-72
2023/07/20 11:29:31;;;;;;;0.73;0.73;;;26.10;99.90;;;;;;5075767;28;20453;-72
2023/07/20 11:31:58;;;;;;;0.88;0.60;;;26.30;99.90;;;;;;5078631;28;20024;-73
2023/07/20 11:34:24;;;;;;;1.73;0.82;;;26.30;99.90;;;;;;5081758;28;20028;-73
2023/07/20 11:36:51;;;;;;;1.58;0.70;;;26.30;99.90;;;;;;5081239;28;20021;-73
2023/07/20 11:39:21;;;;;;;1.88;0.73;;;26.40;99.90;;;;;;5081796;28;20066;-73
2023/07/20 11:41:51;;;;;;;0.47;0.47;;;26.30;99.90;;;;;;5096991;28;20016;-72
2023/07/20 11:44:26;;;;;;;1.70;0.70;;;26.10;99.90;;;;;;5080858;28;20051;-73
2023/07/20 11:47:01;;;;;;;0.77;0.77;;;26.20;99.90;;;;;;5079549;28;20024;-73
2023/07/20 11:49:27;;;;;;;2.15;0.70;;;26.30;99.90;;;;;;5080276;28;20468;-73
2023/07/20 11:51:53;;;;;;;0.80;0.73;;;26.10;99.90;;;;;;5081831;28;20034;-73
2023/07/20 11:54:19;;;;;;;2.00;0.80;;;26.20;99.90;;;;;;5081123;28;20032;-73
2023/07/20 11:56:44;;;;;;;0.80;0.80;;;26.40;99.90;;;;;;5077824;28;20025;-73
2023/07/20 11:59:10;;;;;;;0.60;0.50;;;26.40;99.90;;;;;;5076495;28;20513;-73
2023/07/20 12:01:36;;;;;;;0.93;0.60;;;26.60;99.90;;;;;;5081493;28;20028;-72
2023/07/20 12:04:03;;;;;;;2.08;1.00;;;26.20;99.90;;;;;;5079806;28;20033;-72
2023/07/20 12:06:30;;;;;;;2.28;0.90;;;25.70;99.90;;;;;;5082223;28;20100;-72
2023/07/20 12:08:57;;;;;;;0.65;0.63;;;25.80;99.90;;;;;;5080319;28;20024;-72
2023/07/20 12:11:35;;;;;;;2.83;0.77;;;26.20;99.90;;;;;;5079801;28;20043;-72
2023/07/20 12:14:03;;;;;;;0.88;0.82;;;26.40;99.90;;;;;;5080263;28;20142;-72
2023/07/20 12:16:29;;;;;;;1.38;0.90;;;26.50;99.90;;;;;;5080205;28;20478;-72
2023/07/20 12:19:08;;;;;;;2.45;1.00;;;26.80;99.90;;;;;;5081075;28;20021;-72
2023/07/20 12:21:38;;;;;;;1.08;0.80;;;26.70;99.90;;;;;;5081063;28;20024;-73
2023/07/20 12:24:05;;;;;;;2.03;1.02;;;26.50;99.90;;;;;;5083838;28;20021;-72
2023/07/20 12:26:32;;;;;;;1.08;0.98;;;26.30;99.90;;;;;;5084940;28;20024;-73
2023/07/20 12:28:58;;;;;;;0.65;0.65;;;26.40;99.90;;;;;;5085734;28;20032;-73
2023/07/20 12:31:26;;;;;;;0.68;0.68;;;26.50;99.90;;;;;;5083032;28;20379;-72
2023/07/20 12:33:52;;;;;;;0.73;0.73;;;26.70;99.90;;;;;;5085014;28;20035;-71
2023/07/20 12:36:18;;;;;;;0.77;0.60;;;26.50;99.90;;;;;;5085488;28;20021;-72
2023/07/20 12:38:44;;;;;;;0.82;0.82;;;26.30;99.90;;;;;;5083527;28;20543;-72
2023/07/20 12:41:14;;;;;;;1.17;0.90;;;26.40;99.90;;;;;;5085639;28;20108;-71
2023/07/20 12:43:44;;;;;;;1.52;0.70;;;26.40;99.90;;;;;;5084895;28;20044;-72